sensor_id;sensor_type;location;lat;lon;timestamp;P1;durP1;ratioP1;P2;durP2;ratioP2
7767;SDS011;3928;42.626;23.382;2023-07-16T00:01:41;16.42;;;11.23;;
7767;SDS011;3928;42.626;23.382;2023-07-16T00:04:08;14.80;;;10.63;;
7767;SDS011;3928;42.626;23.382;2023-07-16T00:06:35;11.90;;;9.70;;
7767;SDS011;3928;42.626;23.382;2023-07-16T00:09:03;12.93;;;9.85;;
7767;SDS011;3928;42.626;23.382;2023-07-16T00:11:30;18.77;;;10.50;;
7767;SDS011;3928;42.626;23.382;2023-07-16T00:13:56;20.27;;;11.52;;
7767;SDS011;3928;42.626;23.382;2023-07-16T00:16:23;13.82;;;10.65;;
7767;SDS011;3928;42.626;23.382;2023-07-16T00:18:50;11.10;;;9.57;;
7767;SDS011;3928;42.626;23.382;2023-07-16T00:21:17;13.52;;;9.98;;
7767;SDS011;3928;42.626;23.382;2023-07-16T00:23:43;10.85;;;9.27;;
7767;SDS011;3928;42.626;23.382;2023-07-16T00:26:12;17.42;;;10.13;;
7767;SDS011;3928;42.626;23.382;2023-07-16T00:28:39;10.50;;;8.70;;
7767;SDS011;3928;42.626;23.382;2023-07-16T00:31:06;13.60;;;9.52;;
7767;SDS011;3928;42.626;23.382;2023-07-16T00:33:32;12.85;;;9.98;;
7767;SDS011;3928;42.626;23.382;2023-07-16T00:35:59;11.32;;;9.52;;
7767;SDS011;3928;42.626;23.382;2023-07-16T00:38:26;12.85;;;8.82;;
7767;SDS011;3928;42.626;23.382;2023-07-16T00:40:53;11.73;;;8.48;;
7767;SDS011;3928;42.626;23.382;2023-07-16T00:43:21;11.70;;;9.00;;
7767;SDS011;3928;42.626;23.382;2023-07-16T00:45:48;12.05;;;8.35;;
7767;SDS011;3928;42.626;23.382;2023-07-16T00:48:15;15.85;;;9.50;;
7767;SDS011;3928;42.626;23.382;2023-07-16T00:50:42;11.25;;;8.65;;
7767;SDS011;3928;42.626;23.382;2023-07-16T00:53:09;12.43;;;8.63;;
7767;SDS011;3928;42.626;23.382;2023-07-16T00:55:36;11.68;;;8.20;;
7767;SDS011;3928;42.626;23.382;2023-07-16T00:58:05;17.45;;;8.43;;
7767;SDS011;3928;42.626;23.382;2023-07-16T01:00:34;9.82;;;8.07;;
7767;SDS011;3928;42.626;23.382;2023-07-16T01:03:02;14.25;;;8.68;;
7767;SDS011;3928;42.626;23.382;2023-07-16T01:05:30;9.63;;;8.32;;
7767;SDS011;3928;42.626;23.382;2023-07-16T01:08:04;16.77;;;8.23;;
7767;SDS011;3928;42.626;23.382;2023-07-16T01:10:35;9.02;;;8.23;;
7767;SDS011;3928;42.626;23.382;2023-07-16T01:13:02;9.43;;;7.93;;
7767;SDS011;3928;42.626;23.382;2023-07-16T01:15:30;9.85;;;7.25;;
7767;SDS011;3928;42.626;23.382;2023-07-16T01:17:58;9.65;;;7.20;;
7767;SDS011;3928;42.626;23.382;2023-07-16T01:20:25;9.60;;;7.65;;
7767;SDS011;3928;42.626;23.382;2023-07-16T01:22:58;9.35;;;7.65;;
7767;SDS011;3928;42.626;23.382;2023-07-16T01:25:36;9.98;;;7.75;;
7767;SDS011;3928;42.626;23.382;2023-07-16T01:31:24;8.73;;;7.00;;
7767;SDS011;3928;42.626;23.382;2023-07-16T01:33:52;10.02;;;6.95;;
7767;SDS011;3928;42.626;23.382;2023-07-16T01:36:20;9.43;;;6.93;;
7767;SDS011;3928;42.626;23.382;2023-07-16T01:38:49;11.27;;;7.03;;
7767;SDS011;3928;42.626;23.382;2023-07-16T01:41:16;7.85;;;6.97;;
7767;SDS011;3928;42.626;23.382;2023-07-16T01:43:43;8.98;;;6.93;;
7767;SDS011;3928;42.626;23.382;2023-07-16T01:46:10;8.35;;;6.75;;
7767;SDS011;3928;42.626;23.382;2023-07-16T01:48:39;11.93;;;6.88;;
7767;SDS011;3928;42.626;23.382;2023-07-16T01:51:06;9.90;;;6.85;;
7767;SDS011;3928;42.626;23.382;2023-07-16T01:53:33;11.60;;;6.82;;
7767;SDS011;3928;42.626;23.382;2023-07-16T01:56:00;9.80;;;6.55;;
7767;SDS011;3928;42.626;23.382;2023-07-16T01:58:27;13.00;;;7.13;;
7767;SDS011;3928;42.626;23.382;2023-07-16T02:00:54;9.57;;;6.88;;
7767;SDS011;3928;42.626;23.382;2023-07-16T02:03:20;7.22;;;6.47;;
7767;SDS011;3928;42.626;23.382;2023-07-16T02:05:48;9.45;;;7.20;;
7767;SDS011;3928;42.626;23.382;2023-07-16T02:08:16;7.88;;;6.40;;
7767;SDS011;3928;42.626;23.382;2023-07-16T02:10:43;7.18;;;6.22;;
7767;SDS011;3928;42.626;23.382;2023-07-16T02:13:10;9.38;;;6.28;;
7767;SDS011;3928;42.626;23.382;2023-07-16T02:15:37;10.82;;;6.30;;
7767;SDS011;3928;42.626;23.382;2023-07-16T02:18:03;7.35;;;6.53;;
7767;SDS011;3928;42.626;23.382;2023-07-16T02:20:30;10.65;;;7.20;;
7767;SDS011;3928;42.626;23.382;2023-07-16T02:22:59;10.32;;;6.55;;
7767;SDS011;3928;42.626;23.382;2023-07-16T02:25:25;6.28;;;5.68;;
7767;SDS011;3928;42.626;23.382;2023-07-16T02:27:52;10.02;;;7.25;;
7767;SDS011;3928;42.626;23.382;2023-07-16T02:30:19;7.65;;;6.95;;
7767;SDS011;3928;42.626;23.382;2023-07-16T02:32:46;8.43;;;5.95;;
7767;SDS011;3928;42.626;23.382;2023-07-16T02:35:12;7.40;;;5.55;;
7767;SDS011;3928;42.626;23.382;2023-07-16T02:37:40;6.45;;;5.72;;
7767;SDS011;3928;42.626;23.382;2023-07-16T02:40:08;11.07;;;6.28;;
7767;SDS011;3928;42.626;23.382;2023-07-16T02:42:35;8.23;;;5.97;;
7767;SDS011;3928;42.626;23.382;2023-07-16T02:45:02;6.82;;;6.18;;
7767;SDS011;3928;42.626;23.382;2023-07-16T02:47:29;9.05;;;5.85;;
7767;SDS011;3928;42.626;23.382;2023-07-16T02:49:56;8.65;;;5.90;;
7767;SDS011;3928;42.626;23.382;2023-07-16T02:52:23;7.30;;;5.78;;
7767;SDS011;3928;42.626;23.382;2023-07-16T02:54:50;7.88;;;5.53;;
7767;SDS011;3928;42.626;23.382;2023-07-16T02:57:18;8.00;;;5.70;;
7767;SDS011;3928;42.626;23.382;2023-07-16T02:59:47;8.40;;;5.88;;
7767;SDS011;3928;42.626;23.382;2023-07-16T03:02:13;6.32;;;5.72;;
7767;SDS011;3928;42.626;23.382;2023-07-16T03:04:40;6.97;;;6.28;;
7767;SDS011;3928;42.626;23.382;2023-07-16T03:07:07;8.57;;;5.72;;
7767;SDS011;3928;42.626;23.382;2023-07-16T03:09:34;12.10;;;5.70;;
7767;SDS011;3928;42.626;23.382;2023-07-16T03:12:01;10.85;;;5.82;;
7767;SDS011;3928;42.626;23.382;2023-07-16T03:14:29;9.07;;;6.15;;
7767;SDS011;3928;42.626;23.382;2023-07-16T03:16:56;7.90;;;6.47;;
7767;SDS011;3928;42.626;23.382;2023-07-16T03:19:23;8.23;;;6.07;;
7767;SDS011;3928;42.626;23.382;2023-07-16T03:21:49;7.03;;;5.95;;
7767;SDS011;3928;42.626;23.382;2023-07-16T03:24:16;8.57;;;6.10;;
7767;SDS011;3928;42.626;23.382;2023-07-16T03:26:43;8.80;;;5.43;;
7767;SDS011;3928;42.626;23.382;2023-07-16T03:29:10;8.55;;;5.95;;
7767;SDS011;3928;42.626;23.382;2023-07-16T03:31:38;9.13;;;6.10;;
7767;SDS011;3928;42.626;23.382;2023-07-16T03:34:05;6.13;;;5.53;;
7767;SDS011;3928;42.626;23.382;2023-07-16T03:36:31;7.30;;;5.38;;
7767;SDS011;3928;42.626;23.382;2023-07-16T03:38:58;6.95;;;5.55;;
7767;SDS011;3928;42.626;23.382;2023-07-16T03:41:25;7.03;;;5.47;;
7767;SDS011;3928;42.626;23.382;2023-07-16T03:43:52;7.72;;;5.38;;
7767;SDS011;3928;42.626;23.382;2023-07-16T03:46:19;7.05;;;5.47;;
7767;SDS011;3928;42.626;23.382;2023-07-16T03:48:47;7.43;;;5.25;;
7767;SDS011;3928;42.626;23.382;2023-07-16T03:51:14;7.85;;;5.25;;
7767;SDS011;3928;42.626;23.382;2023-07-16T03:53:42;6.32;;;5.32;;
7767;SDS011;3928;42.626;23.382;2023-07-16T03:56:09;6.32;;;5.28;;
7767;SDS011;3928;42.626;23.382;2023-07-16T03:58:35;6.70;;;5.07;;
7767;SDS011;3928;42.626;23.382;2023-07-16T04:01:02;5.93;;;5.00;;
7767;SDS011;3928;42.626;23.382;2023-07-16T04:03:29;7.20;;;5.03;;
7767;SDS011;3928;42.626;23.382;2023-07-16T04:06:02;11.63;;;5.75;;
7767;SDS011;3928;42.626;23.382;2023-07-16T04:08:29;10.70;;;5.30;;
7767;SDS011;3928;42.626;23.382;2023-07-16T04:10:56;8.75;;;5.50;;
7767;SDS011;3928;42.626;23.382;2023-07-16T04:13:24;8.18;;;5.22;;
7767;SDS011;3928;42.626;23.382;2023-07-16T04:15:51;6.55;;;4.97;;
7767;SDS011;3928;42.626;23.382;2023-07-16T04:18:19;6.70;;;5.45;;
7767;SDS011;3928;42.626;23.382;2023-07-16T04:20:47;6.10;;;5.38;;
7767;SDS011;3928;42.626;23.382;2023-07-16T04:23:15;5.53;;;4.85;;
7767;SDS011;3928;42.626;23.382;2023-07-16T04:25:42;8.52;;;5.57;;
7767;SDS011;3928;42.626;23.382;2023-07-16T04:28:09;8.95;;;5.50;;
7767;SDS011;3928;42.626;23.382;2023-07-16T04:30:35;13.70;;;5.47;;
7767;SDS011;3928;42.626;23.382;2023-07-16T04:33:02;7.20;;;5.20;;
7767;SDS011;3928;42.626;23.382;2023-07-16T04:35:29;9.30;;;5.70;;
7767;SDS011;3928;42.626;23.382;2023-07-16T04:37:56;8.02;;;5.53;;
7767;SDS011;3928;42.626;23.382;2023-07-16T04:40:24;7.90;;;7.05;;
7767;SDS011;3928;42.626;23.382;2023-07-16T04:42:51;9.02;;;5.60;;
7767;SDS011;3928;42.626;23.382;2023-07-16T04:45:17;8.13;;;5.25;;
7767;SDS011;3928;42.626;23.382;2023-07-16T04:47:44;5.22;;;4.80;;
7767;SDS011;3928;42.626;23.382;2023-07-16T04:50:11;9.60;;;6.40;;
7767;SDS011;3928;42.626;23.382;2023-07-16T04:52:38;7.50;;;5.32;;
7767;SDS011;3928;42.626;23.382;2023-07-16T04:55:05;5.50;;;4.80;;
7767;SDS011;3928;42.626;23.382;2023-07-16T04:57:34;7.80;;;6.00;;
7767;SDS011;3928;42.626;23.382;2023-07-16T05:00:01;4.80;;;4.40;;
7767;SDS011;3928;42.626;23.382;2023-07-16T05:02:28;6.80;;;5.28;;
7767;SDS011;3928;42.626;23.382;2023-07-16T05:04:55;8.27;;;5.53;;
7767;SDS011;3928;42.626;23.382;2023-07-16T05:07:21;6.57;;;5.18;;
7767;SDS011;3928;42.626;23.382;2023-07-16T05:09:48;7.38;;;5.00;;
7767;SDS011;3928;42.626;23.382;2023-07-16T05:12:15;9.50;;;5.68;;
7767;SDS011;3928;42.626;23.382;2023-07-16T05:14:44;8.50;;;6.05;;
7767;SDS011;3928;42.626;23.382;2023-07-16T05:17:12;7.13;;;5.63;;
7767;SDS011;3928;42.626;23.382;2023-07-16T05:19:39;10.45;;;5.82;;
7767;SDS011;3928;42.626;23.382;2023-07-16T05:22:06;6.22;;;5.07;;
7767;SDS011;3928;42.626;23.382;2023-07-16T05:24:33;9.05;;;5.05;;
7767;SDS011;3928;42.626;23.382;2023-07-16T05:26:59;5.95;;;5.32;;
7767;SDS011;3928;42.626;23.382;2023-07-16T05:29:26;7.68;;;5.30;;
7767;SDS011;3928;42.626;23.382;2023-07-16T05:31:55;9.73;;;5.38;;
7767;SDS011;3928;42.626;23.382;2023-07-16T05:34:21;5.28;;;4.80;;
7767;SDS011;3928;42.626;23.382;2023-07-16T05:36:48;7.85;;;5.07;;
7767;SDS011;3928;42.626;23.382;2023-07-16T05:39:15;5.57;;;5.07;;
7767;SDS011;3928;42.626;23.382;2023-07-16T05:41:42;10.77;;;5.88;;
7767;SDS011;3928;42.626;23.382;2023-07-16T05:44:09;10.27;;;8.40;;
7767;SDS011;3928;42.626;23.382;2023-07-16T05:46:36;13.30;;;7.40;;
7767;SDS011;3928;42.626;23.382;2023-07-16T05:49:05;9.90;;;6.70;;
7767;SDS011;3928;42.626;23.382;2023-07-16T05:51:32;5.93;;;5.32;;
7767;SDS011;3928;42.626;23.382;2023-07-16T05:53:59;9.15;;;5.18;;
7767;SDS011;3928;42.626;23.382;2023-07-16T05:56:25;9.35;;;5.50;;
7767;SDS011;3928;42.626;23.382;2023-07-16T05:58:52;6.75;;;5.07;;
7767;SDS011;3928;42.626;23.382;2023-07-16T06:01:19;6.97;;;5.50;;
7767;SDS011;3928;42.626;23.382;2023-07-16T06:03:46;5.82;;;4.82;;
7767;SDS011;3928;42.626;23.382;2023-07-16T06:06:14;8.88;;;5.55;;
7767;SDS011;3928;42.626;23.382;2023-07-16T06:08:41;7.70;;;5.75;;
7767;SDS011;3928;42.626;23.382;2023-07-16T06:11:07;10.63;;;4.80;;
7767;SDS011;3928;42.626;23.382;2023-07-16T06:13:34;6.57;;;5.32;;
7767;SDS011;3928;42.626;23.382;2023-07-16T06:16:01;7.70;;;5.97;;
7767;SDS011;3928;42.626;23.382;2023-07-16T06:18:28;8.68;;;5.68;;
7767;SDS011;3928;42.626;23.382;2023-07-16T06:20:55;6.28;;;5.13;;
7767;SDS011;3928;42.626;23.382;2023-07-16T06:23:23;6.25;;;5.47;;
7767;SDS011;3928;42.626;23.382;2023-07-16T06:25:53;7.68;;;5.63;;
7767;SDS011;3928;42.626;23.382;2023-07-16T06:28:20;8.73;;;5.18;;
7767;SDS011;3928;42.626;23.382;2023-07-16T06:30:47;8.18;;;5.40;;
7767;SDS011;3928;42.626;23.382;2023-07-16T06:33:14;9.10;;;6.00;;
7767;SDS011;3928;42.626;23.382;2023-07-16T06:35:43;15.90;;;11.20;;
7767;SDS011;3928;42.626;23.382;2023-07-16T06:38:11;19.83;;;14.90;;
7767;SDS011;3928;42.626;23.382;2023-07-16T06:40:39;12.20;;;10.88;;
7767;SDS011;3928;42.626;23.382;2023-07-16T06:43:06;6.32;;;5.57;;
7767;SDS011;3928;42.626;23.382;2023-07-16T06:45:33;10.38;;;5.32;;
7767;SDS011;3928;42.626;23.382;2023-07-16T06:47:59;7.63;;;5.72;;
7767;SDS011;3928;42.626;23.382;2023-07-16T06:50:26;6.30;;;5.53;;
7767;SDS011;3928;42.626;23.382;2023-07-16T06:52:53;6.25;;;5.57;;
7767;SDS011;3928;42.626;23.382;2023-07-16T06:55:19;7.63;;;5.15;;
7767;SDS011;3928;42.626;23.382;2023-07-16T06:57:48;7.57;;;5.60;;
7767;SDS011;3928;42.626;23.382;2023-07-16T07:00:14;6.57;;;5.97;;
7767;SDS011;3928;42.626;23.382;2023-07-16T07:02:42;8.18;;;5.88;;
7767;SDS011;3928;42.626;23.382;2023-07-16T07:05:08;9.95;;;5.50;;
7767;SDS011;3928;42.626;23.382;2023-07-16T07:07:35;8.00;;;5.80;;
7767;SDS011;3928;42.626;23.382;2023-07-16T07:10:02;7.40;;;5.32;;
7767;SDS011;3928;42.626;23.382;2023-07-16T07:12:29;8.13;;;5.40;;
7767;SDS011;3928;42.626;23.382;2023-07-16T07:15:04;7.25;;;6.20;;
7767;SDS011;3928;42.626;23.382;2023-07-16T07:17:31;6.57;;;5.90;;
7767;SDS011;3928;42.626;23.382;2023-07-16T07:19:58;12.13;;;6.38;;
7767;SDS011;3928;42.626;23.382;2023-07-16T07:22:25;7.70;;;6.20;;
7767;SDS011;3928;42.626;23.382;2023-07-16T07:24:52;5.88;;;5.10;;
7767;SDS011;3928;42.626;23.382;2023-07-16T07:27:18;9.18;;;5.72;;
7767;SDS011;3928;42.626;23.382;2023-07-16T07:29:45;8.98;;;6.13;;
7767;SDS011;3928;42.626;23.382;2023-07-16T07:32:18;10.50;;;6.35;;
7767;SDS011;3928;42.626;23.382;2023-07-16T07:34:45;10.90;;;6.20;;
7767;SDS011;3928;42.626;23.382;2023-07-16T07:37:12;7.38;;;5.88;;
7767;SDS011;3928;42.626;23.382;2023-07-16T07:39:38;7.45;;;6.20;;
7767;SDS011;3928;42.626;23.382;2023-07-16T07:42:05;7.70;;;5.55;;
7767;SDS011;3928;42.626;23.382;2023-07-16T07:44:32;8.82;;;5.63;;
7767;SDS011;3928;42.626;23.382;2023-07-16T07:46:59;7.60;;;5.35;;
7767;SDS011;3928;42.626;23.382;2023-07-16T07:49:27;8.02;;;5.00;;
7767;SDS011;3928;42.626;23.382;2023-07-16T07:51:54;7.57;;;5.05;;
7767;SDS011;3928;42.626;23.382;2023-07-16T07:54:21;5.70;;;5.15;;
7767;SDS011;3928;42.626;23.382;2023-07-16T07:56:48;9.07;;;5.78;;
7767;SDS011;3928;42.626;23.382;2023-07-16T07:59:14;7.00;;;5.55;;
7767;SDS011;3928;42.626;23.382;2023-07-16T08:01:41;10.32;;;5.72;;
7767;SDS011;3928;42.626;23.382;2023-07-16T08:04:08;7.68;;;5.47;;
7767;SDS011;3928;42.626;23.382;2023-07-16T08:06:36;6.25;;;5.38;;
7767;SDS011;3928;42.626;23.382;2023-07-16T08:09:03;11.80;;;6.00;;
7767;SDS011;3928;42.626;23.382;2023-07-16T08:11:30;8.77;;;5.35;;
7767;SDS011;3928;42.626;23.382;2023-07-16T08:13:57;10.25;;;5.93;;
7767;SDS011;3928;42.626;23.382;2023-07-16T08:16:23;7.32;;;5.63;;
7767;SDS011;3928;42.626;23.382;2023-07-16T08:18:50;7.15;;;5.72;;
7767;SDS011;3928;42.626;23.382;2023-07-16T08:21:17;6.38;;;5.20;;
7767;SDS011;3928;42.626;23.382;2023-07-16T08:23:46;11.32;;;5.95;;
7767;SDS011;3928;42.626;23.382;2023-07-16T08:26:13;12.25;;;5.68;;
7767;SDS011;3928;42.626;23.382;2023-07-16T08:28:40;9.73;;;6.10;;
7767;SDS011;3928;42.626;23.382;2023-07-16T08:31:07;9.70;;;6.22;;
7767;SDS011;3928;42.626;23.382;2023-07-16T08:33:33;11.05;;;6.13;;
7767;SDS011;3928;42.626;23.382;2023-07-16T08:36:00;8.63;;;6.32;;
7767;SDS011;3928;42.626;23.382;2023-07-16T08:38:27;8.13;;;5.80;;
7767;SDS011;3928;42.626;23.382;2023-07-16T08:40:55;9.18;;;5.80;;
7767;SDS011;3928;42.626;23.382;2023-07-16T08:43:22;10.85;;;6.75;;
7767;SDS011;3928;42.626;23.382;2023-07-16T08:45:50;7.32;;;6.53;;
7767;SDS011;3928;42.626;23.382;2023-07-16T08:48:17;7.25;;;6.55;;
7767;SDS011;3928;42.626;23.382;2023-07-16T08:50:45;8.27;;;7.10;;
7767;SDS011;3928;42.626;23.382;2023-07-16T08:53:14;12.20;;;7.40;;
7767;SDS011;3928;42.626;23.382;2023-07-16T08:55:42;8.43;;;6.57;;
7767;SDS011;3928;42.626;23.382;2023-07-16T08:58:12;6.28;;;5.63;;
7767;SDS011;3928;42.626;23.382;2023-07-16T09:00:41;8.80;;;6.55;;
7767;SDS011;3928;42.626;23.382;2023-07-16T09:03:09;9.50;;;7.05;;
7767;SDS011;3928;42.626;23.382;2023-07-16T09:05:38;10.75;;;6.72;;
7767;SDS011;3928;42.626;23.382;2023-07-16T09:08:05;9.10;;;6.85;;
7767;SDS011;3928;42.626;23.382;2023-07-16T09:10:33;6.65;;;5.90;;
7767;SDS011;3928;42.626;23.382;2023-07-16T09:13:00;8.30;;;6.15;;
7767;SDS011;3928;42.626;23.382;2023-07-16T09:15:28;9.50;;;6.43;;
7767;SDS011;3928;42.626;23.382;2023-07-16T09:17:56;10.25;;;6.38;;
7767;SDS011;3928;42.626;23.382;2023-07-16T09:20:22;11.57;;;7.88;;
7767;SDS011;3928;42.626;23.382;2023-07-16T09:22:49;18.13;;;16.23;;
7767;SDS011;3928;42.626;23.382;2023-07-16T09:25:16;10.55;;;7.53;;
7767;SDS011;3928;42.626;23.382;2023-07-16T09:27:43;8.70;;;6.68;;
7767;SDS011;3928;42.626;23.382;2023-07-16T09:30:14;9.10;;;6.00;;
7767;SDS011;3928;42.626;23.382;2023-07-16T09:32:43;6.13;;;5.53;;
7767;SDS011;3928;42.626;23.382;2023-07-16T09:35:10;7.20;;;5.53;;
7767;SDS011;3928;42.626;23.382;2023-07-16T09:37:38;8.65;;;6.47;;
7767;SDS011;3928;42.626;23.382;2023-07-16T09:40:05;11.15;;;6.30;;
7767;SDS011;3928;42.626;23.382;2023-07-16T09:42:35;7.60;;;6.50;;
7767;SDS011;3928;42.626;23.382;2023-07-16T09:45:05;10.85;;;6.22;;
7767;SDS011;3928;42.626;23.382;2023-07-16T09:47:34;8.95;;;6.30;;
7767;SDS011;3928;42.626;23.382;2023-07-16T09:50:02;10.15;;;7.05;;
7767;SDS011;3928;42.626;23.382;2023-07-16T09:52:29;9.15;;;6.32;;
7767;SDS011;3928;42.626;23.382;2023-07-16T09:54:57;12.07;;;7.40;;
7767;SDS011;3928;42.626;23.382;2023-07-16T09:57:28;7.63;;;6.93;;
7767;SDS011;3928;42.626;23.382;2023-07-16T09:59:58;11.05;;;7.13;;
7767;SDS011;3928;42.626;23.382;2023-07-16T10:02:29;8.77;;;7.15;;
7767;SDS011;3928;42.626;23.382;2023-07-16T10:04:56;12.82;;;10.85;;
7767;SDS011;3928;42.626;23.382;2023-07-16T10:07:25;10.82;;;7.68;;
7767;SDS011;3928;42.626;23.382;2023-07-16T10:09:52;11.43;;;9.75;;
7767;SDS011;3928;42.626;23.382;2023-07-16T10:12:22;8.82;;;7.25;;
7767;SDS011;3928;42.626;23.382;2023-07-16T10:14:50;14.85;;;7.32;;
7767;SDS011;3928;42.626;23.382;2023-07-16T10:17:19;10.95;;;7.05;;
7767;SDS011;3928;42.626;23.382;2023-07-16T10:19:50;12.18;;;7.75;;
7767;SDS011;3928;42.626;23.382;2023-07-16T10:22:31;14.32;;;7.13;;
7767;SDS011;3928;42.626;23.382;2023-07-16T10:25:02;11.10;;;7.47;;
7767;SDS011;3928;42.626;23.382;2023-07-16T10:27:31;8.60;;;7.35;;
7767;SDS011;3928;42.626;23.382;2023-07-16T10:29:59;10.40;;;7.75;;
7767;SDS011;3928;42.626;23.382;2023-07-16T10:32:28;10.00;;;7.93;;
7767;SDS011;3928;42.626;23.382;2023-07-16T10:34:57;9.93;;;7.50;;
7767;SDS011;3928;42.626;23.382;2023-07-16T10:37:24;8.93;;;7.57;;
7767;SDS011;3928;42.626;23.382;2023-07-16T10:39:54;11.90;;;7.72;;
7767;SDS011;3928;42.626;23.382;2023-07-16T10:42:22;10.15;;;8.05;;
7767;SDS011;3928;42.626;23.382;2023-07-16T10:44:50;13.88;;;7.78;;
7767;SDS011;3928;42.626;23.382;2023-07-16T10:47:18;11.52;;;8.45;;
7767;SDS011;3928;42.626;23.382;2023-07-16T10:49:47;9.27;;;7.10;;
7767;SDS011;3928;42.626;23.382;2023-07-16T10:52:14;11.90;;;7.40;;
7767;SDS011;3928;42.626;23.382;2023-07-16T10:54:40;10.90;;;7.72;;
7767;SDS011;3928;42.626;23.382;2023-07-16T10:57:09;12.70;;;7.80;;
7767;SDS011;3928;42.626;23.382;2023-07-16T10:59:37;15.75;;;8.85;;
7767;SDS011;3928;42.626;23.382;2023-07-16T11:02:05;10.35;;;7.82;;
7767;SDS011;3928;42.626;23.382;2023-07-16T11:04:36;14.77;;;8.38;;
7767;SDS011;3928;42.626;23.382;2023-07-16T11:07:04;14.00;;;8.65;;
7767;SDS011;3928;42.626;23.382;2023-07-16T11:09:33;10.52;;;7.90;;
7767;SDS011;3928;42.626;23.382;2023-07-16T11:12:06;10.88;;;7.65;;
7767;SDS011;3928;42.626;23.382;2023-07-16T11:14:35;12.85;;;7.88;;
7767;SDS011;3928;42.626;23.382;2023-07-16T11:17:05;10.25;;;7.38;;
7767;SDS011;3928;42.626;23.382;2023-07-16T11:19:34;9.30;;;7.60;;
7767;SDS011;3928;42.626;23.382;2023-07-16T11:22:02;8.68;;;7.78;;
7767;SDS011;3928;42.626;23.382;2023-07-16T11:24:37;16.20;;;13.23;;
7767;SDS011;3928;42.626;23.382;2023-07-16T11:27:06;16.98;;;15.27;;
7767;SDS011;3928;42.626;23.382;2023-07-16T11:29:39;10.90;;;7.75;;
7767;SDS011;3928;42.626;23.382;2023-07-16T11:32:07;10.88;;;8.10;;
7767;SDS011;3928;42.626;23.382;2023-07-16T11:34:34;13.15;;;8.10;;
7767;SDS011;3928;42.626;23.382;2023-07-16T11:37:08;15.70;;;8.88;;
7767;SDS011;3928;42.626;23.382;2023-07-16T11:39:36;9.88;;;8.05;;
7767;SDS011;3928;42.626;23.382;2023-07-16T11:42:03;10.82;;;7.82;;
7767;SDS011;3928;42.626;23.382;2023-07-16T11:44:34;12.75;;;8.55;;
7767;SDS011;3928;42.626;23.382;2023-07-16T11:47:03;12.82;;;8.27;;
7767;SDS011;3928;42.626;23.382;2023-07-16T11:49:30;10.88;;;8.93;;
7767;SDS011;3928;42.626;23.382;2023-07-16T11:51:57;10.82;;;8.23;;
7767;SDS011;3928;42.626;23.382;2023-07-16T11:54:24;11.05;;;8.70;;
7767;SDS011;3928;42.626;23.382;2023-07-16T11:56:51;13.68;;;9.10;;
7767;SDS011;3928;42.626;23.382;2023-07-16T11:59:18;10.90;;;8.05;;
7767;SDS011;3928;42.626;23.382;2023-07-16T12:01:46;14.50;;;8.55;;
7767;SDS011;3928;42.626;23.382;2023-07-16T12:04:16;13.13;;;8.93;;
7767;SDS011;3928;42.626;23.382;2023-07-16T12:06:42;15.48;;;8.10;;
7767;SDS011;3928;42.626;23.382;2023-07-16T12:09:09;11.10;;;8.82;;
7767;SDS011;3928;42.626;23.382;2023-07-16T12:11:36;10.70;;;8.27;;
7767;SDS011;3928;42.626;23.382;2023-07-16T12:14:04;9.93;;;7.57;;
7767;SDS011;3928;42.626;23.382;2023-07-16T12:16:31;11.77;;;7.85;;
7767;SDS011;3928;42.626;23.382;2023-07-16T12:18:58;12.88;;;8.40;;
7767;SDS011;3928;42.626;23.382;2023-07-16T12:21:26;13.65;;;8.57;;
7767;SDS011;3928;42.626;23.382;2023-07-16T12:23:53;10.05;;;7.57;;
7767;SDS011;3928;42.626;23.382;2023-07-16T12:26:20;12.82;;;8.55;;
7767;SDS011;3928;42.626;23.382;2023-07-16T12:28:46;12.77;;;8.52;;
7767;SDS011;3928;42.626;23.382;2023-07-16T12:31:13;9.23;;;7.47;;
7767;SDS011;3928;42.626;23.382;2023-07-16T12:33:41;11.88;;;8.20;;
7767;SDS011;3928;42.626;23.382;2023-07-16T12:36:08;10.07;;;8.23;;
7767;SDS011;3928;42.626;23.382;2023-07-16T12:38:36;12.13;;;8.25;;
7767;SDS011;3928;42.626;23.382;2023-07-16T12:41:03;10.05;;;8.00;;
7767;SDS011;3928;42.626;23.382;2023-07-16T12:43:30;11.55;;;8.02;;
7767;SDS011;3928;42.626;23.382;2023-07-16T12:45:59;10.25;;;8.07;;
7767;SDS011;3928;42.626;23.382;2023-07-16T12:48:26;15.02;;;8.70;;
7767;SDS011;3928;42.626;23.382;2023-07-16T12:50:53;10.95;;;8.70;;
7767;SDS011;3928;42.626;23.382;2023-07-16T12:53:19;9.32;;;8.30;;
7767;SDS011;3928;42.626;23.382;2023-07-16T12:55:48;13.13;;;8.15;;
7767;SDS011;3928;42.626;23.382;2023-07-16T12:58:14;17.70;;;8.18;;
7767;SDS011;3928;42.626;23.382;2023-07-16T13:00:41;8.90;;;8.00;;
7767;SDS011;3928;42.626;23.382;2023-07-16T13:03:08;13.65;;;8.48;;
7767;SDS011;3928;42.626;23.382;2023-07-16T13:05:36;9.52;;;8.52;;
7767;SDS011;3928;42.626;23.382;2023-07-16T13:08:03;14.88;;;8.75;;
7767;SDS011;3928;42.626;23.382;2023-07-16T13:10:30;10.43;;;9.02;;
7767;SDS011;3928;42.626;23.382;2023-07-16T13:12:58;11.18;;;8.10;;
7767;SDS011;3928;42.626;23.382;2023-07-16T13:15:25;9.77;;;8.10;;
7767;SDS011;3928;42.626;23.382;2023-07-16T13:17:52;18.20;;;8.23;;
7767;SDS011;3928;42.626;23.382;2023-07-16T13:20:20;11.05;;;8.20;;
7767;SDS011;3928;42.626;23.382;2023-07-16T13:22:48;10.07;;;8.60;;
7767;SDS011;3928;42.626;23.382;2023-07-16T13:25:16;18.33;;;8.73;;
7767;SDS011;3928;42.626;23.382;2023-07-16T13:27:43;10.85;;;8.18;;
7767;SDS011;3928;42.626;23.382;2023-07-16T13:30:11;13.90;;;9.27;;
7767;SDS011;3928;42.626;23.382;2023-07-16T13:32:38;9.23;;;7.70;;
7767;SDS011;3928;42.626;23.382;2023-07-16T13:35:05;17.05;;;12.02;;
7767;SDS011;3928;42.626;23.382;2023-07-16T13:37:32;15.60;;;11.95;;
7767;SDS011;3928;42.626;23.382;2023-07-16T13:39:59;23.23;;;16.23;;
7767;SDS011;3928;42.626;23.382;2023-07-16T13:42:26;10.73;;;8.85;;
7767;SDS011;3928;42.626;23.382;2023-07-16T13:44:53;13.02;;;8.48;;
7767;SDS011;3928;42.626;23.382;2023-07-16T13:47:21;10.57;;;8.57;;
7767;SDS011;3928;42.626;23.382;2023-07-16T13:49:48;10.90;;;9.23;;
7767;SDS011;3928;42.626;23.382;2023-07-16T13:52:15;11.32;;;8.13;;
7767;SDS011;3928;42.626;23.382;2023-07-16T13:54:41;10.63;;;8.35;;
7767;SDS011;3928;42.626;23.382;2023-07-16T13:57:08;16.60;;;8.95;;
7767;SDS011;3928;42.626;23.382;2023-07-16T13:59:35;12.50;;;8.77;;
7767;SDS011;3928;42.626;23.382;2023-07-16T14:02:02;10.35;;;8.25;;
7767;SDS011;3928;42.626;23.382;2023-07-16T14:04:31;11.75;;;8.45;;
7767;SDS011;3928;42.626;23.382;2023-07-16T14:06:58;9.20;;;8.15;;
7767;SDS011;3928;42.626;23.382;2023-07-16T14:09:26;11.25;;;8.38;;
7767;SDS011;3928;42.626;23.382;2023-07-16T14:11:52;12.02;;;8.50;;
7767;SDS011;3928;42.626;23.382;2023-07-16T14:14:20;11.20;;;8.10;;
7767;SDS011;3928;42.626;23.382;2023-07-16T14:16:47;13.93;;;8.88;;
7767;SDS011;3928;42.626;23.382;2023-07-16T14:19:14;10.52;;;8.15;;
7767;SDS011;3928;42.626;23.382;2023-07-16T14:21:42;10.57;;;9.07;;
7767;SDS011;3928;42.626;23.382;2023-07-16T14:24:09;15.82;;;9.20;;
7767;SDS011;3928;42.626;23.382;2023-07-16T14:26:36;12.63;;;8.32;;
7767;SDS011;3928;42.626;23.382;2023-07-16T14:29:03;10.57;;;8.32;;
7767;SDS011;3928;42.626;23.382;2023-07-16T14:31:30;10.57;;;8.25;;
7767;SDS011;3928;42.626;23.382;2023-07-16T14:33:57;10.45;;;8.20;;
7767;SDS011;3928;42.626;23.382;2023-07-16T14:36:24;18.77;;;15.20;;
7767;SDS011;3928;42.626;23.382;2023-07-16T14:38:52;12.00;;;10.57;;
7767;SDS011;3928;42.626;23.382;2023-07-16T14:41:19;11.98;;;8.70;;
7767;SDS011;3928;42.626;23.382;2023-07-16T14:43:45;12.15;;;8.90;;
7767;SDS011;3928;42.626;23.382;2023-07-16T14:46:14;13.77;;;8.35;;
7767;SDS011;3928;42.626;23.382;2023-07-16T14:48:41;13.13;;;8.82;;
7767;SDS011;3928;42.626;23.382;2023-07-16T14:51:09;12.48;;;8.15;;
7767;SDS011;3928;42.626;23.382;2023-07-16T14:53:36;13.25;;;8.48;;
7767;SDS011;3928;42.626;23.382;2023-07-16T14:56:04;9.88;;;8.65;;
7767;SDS011;3928;42.626;23.382;2023-07-16T14:58:32;10.00;;;8.50;;